createdAt,value
2019-05-16T00:03:05.034Z,9.50
2019-05-16T00:06:28.741Z,9.40
2019-05-16T00:09:52.600Z,9.40
2019-05-16T00:13:18.460Z,9.40
2019-05-16T00:16:42.161Z,9.40
2019-05-16T00:20:09.397Z,9.40
2019-05-16T00:23:33.375Z,9.40
2019-05-16T00:26:58.020Z,9.40
2019-05-16T00:30:21.870Z,9.40
2019-05-16T00:33:45.682Z,9.40
2019-05-16T00:37:09.683Z,9.30
2019-05-16T00:40:33.436Z,9.30
2019-05-16T00:43:57.695Z,9.30
2019-05-16T00:47:21.781Z,9.30
2019-05-16T00:50:45.478Z,9.30
2019-05-16T00:54:09.250Z,9.30
2019-05-16T00:57:33.278Z,9.30
2019-05-16T01:00:59.171Z,9.30
2019-05-16T01:04:22.585Z,9.30
2019-05-16T01:07:48.055Z,9.20
2019-05-16T01:11:11.980Z,9.20
2019-05-16T01:14:35.703Z,9.20
2019-05-16T01:17:59.462Z,9.20
2019-05-16T01:21:23.383Z,9.20
2019-05-16T01:24:49.214Z,9.30
2019-05-16T01:28:12.673Z,9.30
2019-05-16T01:31:37.937Z,9.30
2019-05-16T01:35:01.760Z,9.30
2019-05-16T01:38:25.785Z,9.30
2019-05-16T01:41:49.671Z,9.30
2019-05-16T01:45:13.835Z,9.30
2019-05-16T01:48:38.100Z,9.30
2019-05-16T01:52:02.127Z,9.30
2019-05-16T01:55:26.050Z,9.40
2019-05-16T01:58:49.735Z,9.40
2019-05-16T02:02:13.622Z,9.40
2019-05-16T02:05:38.765Z,9.40
2019-05-16T02:09:02.615Z,9.40
2019-05-16T02:12:27.779Z,9.30
2019-05-16T02:15:51.695Z,9.30
2019-05-16T02:19:15.518Z,9.30
2019-05-16T02:22:39.313Z,9.40
2019-05-16T02:26:03.131Z,9.30
2019-05-16T02:29:26.910Z,9.30
2019-05-16T02:32:52.343Z,9.30
2019-05-16T02:36:16.130Z,9.30
2019-05-16T02:39:41.044Z,9.20
2019-05-16T02:43:05.112Z,9.30
2019-05-16T02:46:30.814Z,9.30
2019-05-16T02:49:54.446Z,9.20
2019-05-16T02:53:21.910Z,9.30
2019-05-16T02:56:44.115Z,9.30
2019-05-16T03:00:12.090Z,9.30
2019-05-16T03:03:35.789Z,9.30
2019-05-16T03:07:00.810Z,9.20
2019-05-16T03:10:24.838Z,9.30
2019-05-16T03:13:51.360Z,9.30
2019-05-16T03:17:17.349Z,9.30
2019-05-16T03:20:42.137Z,9.40
2019-05-16T03:24:06.059Z,9.40
2019-05-16T03:27:30.565Z,9.40
2019-05-16T03:30:55.186Z,9.50
2019-05-16T03:34:24.737Z,9.50
2019-05-16T03:37:55.283Z,9.50
2019-05-16T03:41:11.421Z,9.50
2019-05-16T03:44:35.566Z,9.60
2019-05-16T03:48:02.732Z,9.60
2019-05-16T03:51:24.879Z,9.60
2019-05-16T03:54:50.673Z,9.60
2019-05-16T03:58:14.157Z,9.50
2019-05-16T04:01:40.905Z,9.50
2019-05-16T04:05:05.422Z,9.50
2019-05-16T04:08:31.051Z,9.60
2019-05-16T04:11:54.594Z,9.60
2019-05-16T04:15:21.216Z,9.70
2019-05-16T04:18:43.893Z,9.70
2019-05-16T04:22:10.665Z,9.80
2019-05-16T04:25:34.949Z,9.90
2019-05-16T04:29:00.750Z,9.90
2019-05-16T04:32:24.257Z,10.00
2019-05-16T04:35:47.995Z,10.00
2019-05-16T04:39:12.222Z,10.10
2019-05-16T04:42:36.168Z,10.20
2019-05-16T04:46:01.400Z,10.10
2019-05-16T04:49:26.111Z,10.20
2019-05-16T04:52:51.705Z,10.30
2019-05-16T04:56:15.499Z,10.40
2019-05-16T04:59:41.754Z,10.20
2019-05-16T05:03:05.089Z,10.10
2019-05-16T05:06:31.273Z,10.20
2019-05-16T05:09:54.737Z,10.20
2019-05-16T05:13:21.910Z,10.20
2019-05-16T05:16:44.513Z,10.10
2019-05-16T05:20:10.682Z,10.00
2019-05-16T05:23:35.104Z,9.90
2019-05-16T05:26:59.792Z,9.70
2019-05-16T05:30:25.102Z,9.70
2019-05-16T05:33:50.709Z,9.60
2019-05-16T05:37:15.310Z,9.60
2019-05-16T05:40:40.470Z,9.80
2019-05-16T05:44:04.648Z,9.90
2019-05-16T05:47:30.802Z,9.90
2019-05-16T05:50:54.092Z,9.90
2019-05-16T05:54:20.195Z,9.90
2019-05-16T05:57:44.067Z,10.00
2019-05-16T06:01:07.861Z,10.10
2019-05-16T06:04:31.580Z,10.20
2019-05-16T06:07:55.561Z,10.00
2019-05-16T06:11:20.543Z,9.80
2019-05-16T06:14:44.703Z,9.90
2019-05-16T06:18:10.749Z,9.90
2019-05-16T06:21:34.338Z,10.10
2019-05-16T06:25:00.936Z,10.30
2019-05-16T06:28:24.058Z,10.40
2019-05-16T06:31:49.643Z,10.80
2019-05-16T06:35:13.796Z,10.80
2019-05-16T06:38:37.721Z,10.90
2019-05-16T06:42:01.702Z,10.80
2019-05-16T06:45:25.472Z,10.80
2019-05-16T06:48:50.589Z,11.00
2019-05-16T06:52:14.722Z,10.90
2019-05-16T06:55:40.148Z,10.80
2019-05-16T06:59:03.978Z,10.80
2019-05-16T07:02:33.593Z,10.90
2019-05-16T07:05:53.342Z,10.60
2019-05-16T07:09:17.085Z,10.70
2019-05-16T07:12:41.358Z,10.80
2019-05-16T07:16:05.433Z,11.10
2019-05-16T07:19:30.134Z,11.20
2019-05-16T07:22:54.056Z,11.30
2019-05-16T07:26:20.350Z,11.40
2019-05-16T07:29:43.281Z,11.50
2019-05-16T07:33:07.047Z,11.70
2019-05-16T07:36:31.645Z,11.80
2019-05-16T07:39:55.515Z,12.00
2019-05-16T07:43:20.534Z,12.50
2019-05-16T07:46:44.915Z,12.60
2019-05-16T07:50:10.472Z,12.50
2019-05-16T07:53:34.283Z,12.40
2019-05-16T07:57:10.384Z,12.40
2019-05-16T08:00:41.959Z,12.80
2019-05-16T08:03:50.948Z,13.40
2019-05-16T08:07:15.095Z,13.80
2019-05-16T08:10:46.124Z,14.20
2019-05-16T08:14:04.636Z,14.40
2019-05-16T08:20:52.252Z,14.40
2019-05-16T08:24:15.326Z,13.60
2019-05-16T08:27:41.397Z,15.00
2019-05-16T08:31:03.954Z,23.80
2019-05-16T08:34:28.663Z,25.00
2019-05-16T08:37:53.411Z,23.90
2019-05-16T08:41:18.294Z,21.40
2019-05-16T08:44:42.713Z,20.40
2019-05-16T08:48:06.488Z,19.50
2019-05-16T08:51:33.163Z,18.10
2019-05-16T08:54:55.939Z,17.40
2019-05-16T08:58:22.762Z,18.10
2019-05-16T09:01:52.391Z,19.70
2019-05-16T09:05:13.640Z,20.00
2019-05-16T09:08:36.874Z,19.30
2019-05-16T09:12:00.541Z,20.40
2019-05-16T09:15:27.116Z,19.50
2019-05-16T09:18:51.061Z,18.30
2019-05-16T09:22:17.968Z,17.60
2019-05-16T09:25:40.731Z,17.90
2019-05-16T09:29:07.894Z,18.60
2019-05-16T09:32:30.149Z,19.20
2019-05-16T09:35:53.931Z,18.90
2019-05-16T09:39:17.863Z,17.50
2019-05-16T09:42:41.538Z,18.00
2019-05-16T09:46:07.821Z,18.70
2019-05-16T09:49:31.015Z,19.60
2019-05-16T09:52:56.563Z,19.50
2019-05-16T09:56:20.479Z,19.80
2019-05-16T09:59:46.373Z,19.80
2019-05-16T10:03:09.780Z,23.20
2019-05-16T10:06:33.599Z,29.00
2019-05-16T10:09:57.411Z,33.80
2019-05-16T10:13:22.036Z,31.60
2019-05-16T10:16:47.722Z,27.20
2019-05-16T10:20:12.026Z,25.60
2019-05-16T10:23:36.414Z,31.90
2019-05-16T10:27:00.544Z,31.30
2019-05-16T10:30:26.802Z,27.20
2019-05-16T10:33:50.208Z,25.40
2019-05-16T10:37:13.950Z,24.20
2019-05-16T10:40:37.904Z,23.90
2019-05-16T10:44:01.834Z,23.00
2019-05-16T10:47:30.475Z,24.60
2019-05-16T10:50:51.222Z,24.10
2019-05-16T10:54:18.101Z,23.60
2019-05-16T10:57:40.895Z,22.30
2019-05-16T11:01:19.449Z,21.60
2019-05-16T11:04:49.479Z,23.40
2019-05-16T11:07:57.361Z,26.20
2019-05-16T11:11:21.501Z,26.10
2019-05-16T11:14:47.784Z,25.30
2019-05-16T11:18:11.392Z,23.70
2019-05-16T11:21:37.704Z,22.70
2019-05-16T11:25:01.628Z,23.70
2019-05-16T11:28:25.583Z,25.80
2019-05-16T11:31:49.443Z,24.90
2019-05-16T11:35:16.890Z,24.80
2019-05-16T11:38:40.059Z,23.60
2019-05-16T11:42:04.086Z,20.10
2019-05-16T11:45:27.965Z,20.40
2019-05-16T11:48:51.806Z,24.00
2019-05-16T11:52:17.993Z,27.30
2019-05-16T11:55:51.760Z,26.80
2019-05-16T11:59:07.850Z,22.90
2019-05-16T12:02:31.971Z,20.90
2019-05-16T12:05:57.967Z,19.60
2019-05-16T12:09:22.365Z,22.60
2019-05-16T12:12:46.146Z,22.70
2019-05-16T12:16:10.018Z,21.40
2019-05-16T12:19:37.721Z,20.70
2019-05-16T12:22:59.465Z,20.50
2019-05-16T12:26:23.378Z,22.10
2019-05-16T12:29:54.158Z,22.50
2019-05-16T12:33:13.253Z,22.70
2019-05-16T12:36:37.882Z,22.40
2019-05-16T12:40:01.858Z,22.20
2019-05-16T12:43:44.274Z,23.80
2019-05-16T12:46:51.711Z,25.30
2019-05-16T12:50:17.857Z,25.70
2019-05-16T12:53:44.629Z,24.30
2019-05-16T12:57:08.313Z,21.80
2019-05-16T13:00:32.186Z,20.30
2019-05-16T13:03:55.845Z,19.20
2019-05-16T13:07:19.815Z,18.70
2019-05-16T13:10:43.790Z,18.50
2019-05-16T13:14:10.996Z,18.40
2019-05-16T13:17:33.123Z,17.80
2019-05-16T13:20:57.406Z,17.90
2019-05-16T13:24:21.477Z,18.30
2019-05-16T13:27:47.458Z,18.00
2019-05-16T13:31:10.764Z,17.70
2019-05-16T13:34:38.101Z,17.90
2019-05-16T13:38:00.079Z,17.90
2019-05-16T13:41:23.863Z,18.50
2019-05-16T13:44:47.648Z,18.30
2019-05-16T13:48:11.747Z,18.80
2019-05-16T13:51:37.337Z,18.90
2019-05-16T13:55:01.035Z,19.00
2019-05-16T13:58:28.097Z,19.50
2019-05-16T14:01:50.819Z,19.80
2019-05-16T14:05:17.921Z,19.70
2019-05-16T14:08:42.104Z,20.30
2019-05-16T14:12:06.760Z,20.70
2019-05-16T14:15:30.546Z,21.00
2019-05-16T14:18:54.591Z,20.40
2019-05-16T14:22:18.451Z,19.60
2019-05-16T14:25:42.605Z,19.00
2019-05-16T14:29:08.084Z,18.60
2019-05-16T14:32:32.087Z,18.90
2019-05-16T14:35:56.454Z,19.30
2019-05-16T14:39:20.307Z,19.70
2019-05-16T14:42:44.131Z,19.30
2019-05-16T14:46:09.667Z,19.70
2019-05-16T14:49:34.036Z,19.40
2019-05-16T14:52:57.848Z,19.00
2019-05-16T14:56:22.998Z,18.80
2019-05-16T14:59:47.216Z,19.20
2019-05-16T15:03:11.408Z,19.70
2019-05-16T15:06:37.637Z,19.60
2019-05-16T15:10:07.398Z,20.40
2019-05-16T15:13:33.910Z,20.60
2019-05-16T15:16:57.989Z,20.40
2019-05-16T15:20:27.916Z,20.50
2019-05-16T15:23:52.697Z,20.70
2019-05-16T15:27:17.447Z,20.30
2019-05-16T15:30:42.298Z,20.40
2019-05-16T15:34:06.908Z,20.30
2019-05-16T15:37:31.133Z,20.20
2019-05-16T15:40:57.288Z,20.20
2019-05-16T15:44:20.707Z,20.00
2019-05-16T15:47:45.686Z,19.90
2019-05-16T15:51:10.367Z,20.20
2019-05-16T15:54:37.487Z,20.40
2019-05-16T15:58:01.127Z,19.90
2019-05-16T16:01:27.045Z,19.70
2019-05-16T16:04:51.431Z,20.00
2019-05-16T16:08:17.809Z,19.90
2019-05-16T16:11:45.478Z,19.60
2019-05-16T16:15:10.366Z,19.70
2019-05-16T16:18:34.344Z,20.00
2019-05-16T16:21:58.312Z,20.10
2019-05-16T16:25:22.128Z,19.80
2019-05-16T16:28:46.162Z,19.60
2019-05-16T16:32:11.575Z,19.30
2019-05-16T16:35:37.912Z,19.20
2019-05-16T16:39:01.400Z,19.00
2019-05-16T16:42:27.266Z,18.80
2019-05-16T16:46:04.100Z,18.60
2019-05-16T16:49:17.425Z,18.50
2019-05-16T16:52:41.922Z,18.30
2019-05-16T16:56:07.452Z,18.20
2019-05-16T16:59:31.738Z,18.10
2019-05-16T17:03:03.141Z,18.00
2019-05-16T17:06:21.659Z,17.80
2019-05-16T17:09:47.130Z,17.70
2019-05-16T17:13:11.137Z,17.60
2019-05-16T17:16:37.171Z,17.40
2019-05-16T17:20:00.476Z,17.40
2019-05-16T17:23:26.416Z,17.30
2019-05-16T17:26:49.906Z,17.20
2019-05-16T17:30:17.110Z,17.10
2019-05-16T17:33:41.067Z,17.00
2019-05-16T17:37:07.455Z,16.80
2019-05-16T17:40:30.525Z,16.70
2019-05-16T17:43:56.226Z,16.50
2019-05-16T17:47:19.983Z,16.40
2019-05-16T17:50:46.515Z,16.20
2019-05-16T17:54:11.238Z,16.10
2019-05-16T17:57:37.118Z,16.00
2019-05-16T18:01:00.820Z,15.80
2019-05-16T18:04:26.693Z,15.60
2019-05-16T18:07:50.478Z,15.60
2019-05-16T18:11:14.172Z,15.40
2019-05-16T18:14:38.002Z,15.40
2019-05-16T18:18:01.909Z,15.40
2019-05-16T18:21:26.499Z,15.30
2019-05-16T18:24:50.340Z,15.30
2019-05-16T18:28:14.057Z,15.20
2019-05-16T18:31:37.925Z,15.20
2019-05-16T18:35:01.884Z,15.20
2019-05-16T18:38:26.496Z,15.10
2019-05-16T18:41:51.009Z,15.00
2019-05-16T18:45:16.510Z,14.90
2019-05-16T18:48:41.349Z,14.90
2019-05-16T18:52:06.537Z,14.80
2019-05-16T18:55:31.507Z,14.80
2019-05-16T18:58:57.269Z,14.70
2019-05-16T19:02:22.301Z,14.60
2019-05-16T19:05:46.937Z,14.60
2019-05-16T19:09:11.307Z,14.50
2019-05-16T19:12:37.179Z,14.50
2019-05-16T19:16:01.813Z,14.50
2019-05-16T19:19:28.376Z,14.40
2019-05-16T19:22:52.755Z,14.40
2019-05-16T19:26:17.474Z,14.40
2019-05-16T19:29:46.130Z,14.40
2019-05-16T19:33:11.168Z,14.40
2019-05-16T19:36:36.169Z,14.40
2019-05-16T19:40:00.932Z,14.30
2019-05-16T19:43:26.541Z,14.40
2019-05-16T19:46:50.473Z,14.30
2019-05-16T19:50:15.537Z,14.30
2019-05-16T19:53:40.606Z,14.20
2019-05-16T19:57:07.001Z,14.20
2019-05-16T20:00:31.099Z,14.20
2019-05-16T20:03:56.499Z,14.10
2019-05-16T20:07:21.598Z,14.10
2019-05-16T20:10:47.551Z,14.10
2019-05-16T20:14:11.051Z,14.00
2019-05-16T20:17:37.754Z,14.00
2019-05-16T20:21:00.901Z,13.90
2019-05-16T20:24:27.170Z,13.90
2019-05-16T20:27:50.724Z,13.80
2019-05-16T20:31:16.936Z,13.80
2019-05-16T20:34:40.183Z,13.80
2019-05-16T20:38:03.901Z,13.70
2019-05-16T20:41:27.791Z,13.70
2019-05-16T20:44:51.767Z,13.70
2019-05-16T20:48:18.394Z,13.70
2019-05-16T20:51:41.098Z,13.60
2019-05-16T20:55:07.246Z,13.60
2019-05-16T20:58:31.328Z,13.60
2019-05-16T21:01:57.328Z,13.60
2019-05-16T21:05:20.659Z,13.60
2019-05-16T21:08:46.270Z,13.50
2019-05-16T21:12:10.127Z,13.50
2019-05-16T21:15:34.117Z,13.50
2019-05-16T21:18:58.147Z,13.50
2019-05-16T21:22:22.072Z,13.50
2019-05-16T21:25:46.676Z,13.50
2019-05-16T21:29:10.851Z,13.50
2019-05-16T21:32:36.531Z,13.50
2019-05-16T21:36:00.446Z,13.40
2019-05-16T21:39:26.463Z,13.40
2019-05-16T21:42:50.431Z,13.40
2019-05-16T21:46:14.423Z,13.40
2019-05-16T21:49:38.301Z,13.40
2019-05-16T21:53:02.320Z,13.40
2019-05-16T21:56:26.582Z,13.30
2019-05-16T21:59:50.701Z,13.30
2019-05-16T22:03:15.156Z,13.30
2019-05-16T22:06:39.141Z,13.30
2019-05-16T22:10:03.175Z,13.20
2019-05-16T22:13:27.018Z,13.20
2019-05-16T22:16:50.827Z,13.10
2019-05-16T22:20:16.528Z,13.10
2019-05-16T22:23:40.605Z,13.10
2019-05-16T22:27:06.713Z,13.00
2019-05-16T22:30:30.131Z,13.00
2019-05-16T22:33:53.930Z,13.00
2019-05-16T22:37:18.895Z,13.00
2019-05-16T22:40:42.644Z,13.00
2019-05-16T22:44:08.826Z,12.90
2019-05-16T22:47:32.028Z,13.00
2019-05-16T22:50:56.528Z,13.00
2019-05-16T22:54:20.433Z,12.90
2019-05-16T22:57:47.064Z,13.00
2019-05-16T23:01:10.155Z,12.90
2019-05-16T23:04:33.908Z,13.00
2019-05-16T23:08:04.942Z,13.00
2019-05-16T23:11:23.294Z,13.00
2019-05-16T23:14:47.635Z,13.00
2019-05-16T23:18:11.478Z,13.00
2019-05-16T23:21:36.757Z,13.00
2019-05-16T23:25:00.665Z,13.10
2019-05-16T23:28:27.060Z,13.10
2019-05-16T23:31:50.968Z,13.10
2019-05-16T23:35:14.866Z,13.10
2019-05-16T23:38:38.788Z,13.20
2019-05-16T23:42:02.625Z,13.20
2019-05-16T23:45:27.464Z,13.20
2019-05-16T23:48:51.543Z,13.20
2019-05-16T23:52:16.814Z,13.20
2019-05-16T23:55:40.880Z,13.20
2019-05-16T23:59:06.593Z,13.20
